Time,TemperatureF,DewpointF,PressureIn,WindDirection,WindDirectionDegrees,WindSpeedMPH,WindSpeedGustMPH,Humidity,HourlyPrecipIn,Conditions,Clouds,dailyrainin,SoftwareType,DateUTC
2013-03-24 00:03:00,48.0,42.0,29.74,NNE,14,2.0,7.0,81,0.00,,,0.10,,2013-03-24 04:03:00,
2013-03-24 00:13:00,48.0,42.0,29.74,NNE,14,2.0,7.0,81,0.00,,,0.10,,2013-03-24 04:13:00,
2013-03-24 00:23:00,47.0,42.0,29.78,North,354,1.0,3.0,83,0.00,,,0.10,,2013-03-24 04:23:00,
2013-03-24 00:33:00,47.0,43.0,29.80,North,354,0.0,3.0,85,0.04,,,0.14,,2013-03-24 04:33:00,
2013-03-24 00:43:00,47.0,43.0,29.80,North,354,0.0,3.0,85,0.04,,,0.14,,2013-03-24 04:43:00,
2013-03-24 00:52:00,47.0,43.0,29.81,North,354,0.0,2.0,87,0.08,,,0.18,,2013-03-24 04:52:00,
2013-03-24 01:03:00,46.0,43.0,29.80,North,353,0.0,0.0,88,0.15,,,0.25,,2013-03-24 05:03:00,
2013-03-24 01:13:00,46.0,43.0,29.80,North,353,0.0,0.0,88,0.15,,,0.25,,2013-03-24 05:13:00,
2013-03-24 01:23:00,46.0,43.0,29.78,ESE,119,3.0,5.0,89,0.20,,,0.30,,2013-03-24 05:23:00,
2013-03-24 01:32:00,46.0,43.0,29.73,South,171,2.0,8.0,90,0.20,,,0.33,,2013-03-24 05:32:00,
2013-03-24 01:43:00,46.0,43.0,29.73,South,171,2.0,8.0,90,0.20,,,0.33,,2013-03-24 05:43:00,
2013-03-24 01:52:00,46.0,43.0,29.75,SSW,213,1.0,7.0,90,0.18,,,0.36,,2013-03-24 05:52:00,
2013-03-24 02:02:00,46.0,44.0,29.75,SSE,152,0.0,6.0,91,0.13,,,0.38,,2013-03-24 06:02:00,
2013-03-24 02:12:00,46.0,44.0,29.75,SSE,152,0.0,6.0,91,0.13,,,0.38,,2013-03-24 06:12:00,
2013-03-24 02:22:00,46.0,44.0,29.73,South,191,1.0,7.0,91,0.11,,,0.41,,2013-03-24 06:22:00,
2013-03-24 02:32:00,46.0,44.0,29.71,WSW,254,2.0,5.0,91,0.09,,,0.42,,2013-03-24 06:32:00,
2013-03-24 02:42:00,46.0,44.0,29.71,WSW,254,2.0,5.0,91,0.09,,,0.42,,2013-03-24 06:42:00,
2013-03-24 02:52:00,46.0,44.0,29.69,WSW,254,1.0,2.0,92,0.08,,,0.43,,2013-03-24 06:52:00,
2013-03-24 03:02:00,46.0,44.0,29.67,WSW,254,0.0,2.0,92,0.06,,,0.44,,2013-03-24 07:02:00,
2013-03-24 03:12:00,46.0,44.0,29.67,WSW,254,0.0,2.0,92,0.06,,,0.44,,2013-03-24 07:12:00,
2013-03-24 03:22:00,46.0,44.0,29.67,West,260,0.0,2.0,92,0.04,,,0.45,,2013-03-24 07:22:00,
2013-03-24 03:32:00,46.0,44.0,29.67,West,261,0.0,2.0,92,0.06,,,0.48,,2013-03-24 07:32:00,
2013-03-24 03:42:00,46.0,44.0,29.67,West,261,0.0,2.0,92,0.06,,,0.48,,2013-03-24 07:42:00,
2013-03-24 03:52:00,46.0,44.0,29.68,West,263,0.0,0.0,93,0.06,,,0.49,,2013-03-24 07:52:00,
2013-03-24 04:03:00,46.0,44.0,29.67,West,263,0.0,2.0,93,0.07,,,0.51,,2013-03-24 08:03:00,
2013-03-24 04:12:00,46.0,44.0,29.67,West,263,0.0,2.0,93,0.07,,,0.51,,2013-03-24 08:12:00,
2013-03-24 04:22:00,47.0,45.0,29.65,North,353,2.0,3.0,94,0.08,,,0.53,,2013-03-24 08:22:00,
2013-03-24 04:32:00,47.0,45.0,29.63,NNE,16,2.0,4.0,94,0.08,,,0.55,,2013-03-24 08:32:00,
2013-03-24 04:42:00,47.0,45.0,29.63,NNE,16,2.0,4.0,94,0.08,,,0.55,,2013-03-24 08:42:00,
2013-03-24 04:52:00,47.0,45.0,29.62,NNE,16,0.0,0.0,94,0.07,,,0.56,,2013-03-24 08:52:00,
2013-03-24 05:02:00,47.0,45.0,29.59,NNE,14,0.0,3.0,94,0.06,,,0.57,,2013-03-24 09:02:00,
2013-03-24 05:12:00,47.0,45.0,29.59,NNE,14,0.0,3.0,94,0.06,,,0.57,,2013-03-24 09:12:00,
2013-03-24 05:22:00,46.0,44.0,29.62,NNE,18,2.0,6.0,94,0.06,,,0.56,,2013-03-24 09:22:00,
2013-03-24 05:33:00,46.0,44.0,29.59,NE,47,0.0,5.0,94,0.07,,,0.59,,2013-03-24 09:33:00,
2013-03-24 05:42:00,46.0,44.0,29.59,NE,47,0.0,5.0,94,0.07,,,0.59,,2013-03-24 09:42:00,
2013-03-24 05:52:00,46.0,44.0,29.61,NE,47,0.0,3.0,94,0.09,,,0.62,,2013-03-24 09:52:00,
2013-03-24 06:03:00,46.0,44.0,29.62,East,80,0.0,2.0,94,0.12,,,0.66,,2013-03-24 10:03:00,
2013-03-24 06:12:00,46.0,44.0,29.62,East,80,0.0,2.0,94,0.12,,,0.66,,2013-03-24 10:12:00,
2013-03-24 06:22:00,46.0,44.0,29.62,East,80,0.0,0.0,94,0.17,,,0.71,,2013-03-24 10:22:00,
2013-03-24 06:33:00,46.0,44.0,29.62,East,80,0.0,1.0,94,0.20,,,0.77,,2013-03-24 10:33:00,
2013-03-24 06:42:00,46.0,44.0,29.62,East,80,0.0,1.0,94,0.20,,,0.77,,2013-03-24 10:42:00,
2013-03-24 06:52:00,46.0,44.0,29.58,East,92,0.0,7.0,94,0.20,,,0.80,,2013-03-24 10:52:00,
2013-03-24 07:03:00,46.0,44.0,29.60,NNE,20,3.0,6.0,94,0.16,,,0.80,,2013-03-24 11:03:00,
2013-03-24 07:12:00,46.0,44.0,29.60,NNE,20,3.0,6.0,94,0.16,,,0.80,,2013-03-24 11:12:00,
2013-03-24 07:22:00,45.0,43.0,29.55,NNE,31,1.0,5.0,94,0.10,,,0.80,,2013-03-24 11:22:00,
2013-03-24 07:33:00,46.0,44.0,29.57,NNE,31,0.0,2.0,94,0.05,,,0.81,,2013-03-24 11:33:00,
2013-03-24 07:42:00,46.0,44.0,29.57,NNE,31,0.0,2.0,94,0.05,,,0.81,,2013-03-24 11:42:00,
2013-03-24 07:52:00,46.0,45.0,29.57,NNE,31,0.0,0.0,95,0.01,,,0.81,,2013-03-24 11:52:00,
2013-03-24 08:03:00,46.0,45.0,29.57,NNE,31,0.0,2.0,95,0.01,,,0.81,,2013-03-24 12:03:00,
2013-03-24 08:12:00,46.0,45.0,29.57,NNE,31,0.0,2.0,95,0.01,,,0.81,,2013-03-24 12:12:00,
2013-03-24 08:22:00,46.0,45.0,29.57,NNE,31,0.0,0.0,95,0.01,,,0.77,,2013-03-24 12:22:00,
2013-03-24 08:32:00,46.0,45.0,29.58,NNE,31,0.0,2.0,95,0.00,,,0.77,,2013-03-24 12:32:00,
2013-03-24 08:42:00,46.0,45.0,29.58,NNE,31,0.0,2.0,95,0.00,,,0.77,,2013-03-24 12:42:00,
2013-03-24 08:52:00,45.0,43.0,29.58,NNE,31,1.0,2.0,94,0.00,,,0.77,,2013-03-24 12:52:00,
2013-03-24 09:02:00,46.0,45.0,29.57,NE,41,2.0,3.0,96,0.00,,,0.77,,2013-03-24 13:02:00,
2013-03-24 09:13:00,46.0,45.0,29.57,NE,41,2.0,3.0,96,0.00,,,0.77,,2013-03-24 13:13:00,
2013-03-24 09:22:00,45.0,43.0,29.57,NE,40,0.0,3.0,94,0.00,,,0.77,,2013-03-24 13:22:00,
2013-03-24 09:32:00,46.0,45.0,29.56,NE,40,0.0,0.0,95,0.00,,,0.77,,2013-03-24 13:32:00,
2013-03-24 09:42:00,46.0,45.0,29.56,NE,40,0.0,0.0,95,0.00,,,0.77,,2013-03-24 13:42:00,
2013-03-24 09:52:00,46.0,45.0,29.56,NE,40,0.0,2.0,95,0.00,,,0.77,,2013-03-24 13:52:00,
2013-03-24 10:02:00,46.0,45.0,29.57,NE,40,0.0,0.0,95,0.00,,,0.77,,2013-03-24 14:02:00,
2013-03-24 10:13:00,46.0,45.0,29.57,NE,40,0.0,0.0,95,0.00,,,0.77,,2013-03-24 14:13:00,
2013-03-24 10:22:00,46.0,45.0,29.58,NE,40,0.0,2.0,95,0.00,,,0.77,,2013-03-24 14:22:00,
2013-03-24 10:33:00,46.0,45.0,29.57,NE,40,0.0,2.0,95,0.01,,,0.78,,2013-03-24 14:33:00,
2013-03-24 10:42:00,46.0,45.0,29.57,NE,40,0.0,2.0,95,0.01,,,0.78,,2013-03-24 14:42:00,
2013-03-24 10:52:00,47.0,45.0,29.57,NE,40,1.0,3.0,94,0.01,,,0.78,,2013-03-24 14:52:00,
2013-03-24 11:02:00,47.0,46.0,29.58,NE,40,0.0,0.0,96,0.01,,,0.78,,2013-03-24 15:02:00,
2013-03-24 11:12:00,47.0,46.0,29.58,NE,40,0.0,0.0,96,0.01,,,0.78,,2013-03-24 15:12:00,
2013-03-24 11:22:00,47.0,46.0,29.58,NE,40,0.0,3.0,95,0.01,,,0.78,,2013-03-24 15:22:00,
2013-03-24 11:33:00,48.0,47.0,29.58,NE,40,0.0,0.0,95,0.00,,,0.78,,2013-03-24 15:33:00,
2013-03-24 11:43:00,48.0,47.0,29.58,NE,40,0.0,0.0,95,0.00,,,0.78,,2013-03-24 15:43:00,
2013-03-24 11:53:00,48.0,47.0,29.57,NE,40,0.0,1.0,96,0.00,,,0.78,,2013-03-24 15:53:00,
2013-03-24 12:03:00,48.0,47.0,29.55,NE,40,1.0,2.0,96,0.00,,,0.78,,2013-03-24 16:03:00,
2013-03-24 12:13:00,48.0,47.0,29.55,NE,40,1.0,2.0,96,0.00,,,0.78,,2013-03-24 16:13:00,
2013-03-24 12:23:00,49.0,48.0,29.55,NE,40,0.0,1.0,96,0.00,,,0.78,,2013-03-24 16:23:00,
2013-03-24 12:33:00,49.0,48.0,29.54,NE,40,0.0,0.0,96,0.00,,,0.78,,2013-03-24 16:33:00,
2013-03-24 12:43:00,49.0,48.0,29.54,NE,40,0.0,0.0,96,0.00,,,0.78,,2013-03-24 16:43:00,
2013-03-24 12:52:00,50.0,49.0,29.55,NE,40,0.0,2.0,97,0.00,,,0.78,,2013-03-24 16:52:00,
2013-03-24 13:03:00,50.0,49.0,29.53,NE,40,0.0,0.0,97,0.00,,,0.78,,2013-03-24 17:03:00,
2013-03-24 13:12:00,50.0,49.0,29.53,NE,40,0.0,0.0,97,0.00,,,0.78,,2013-03-24 17:12:00,
2013-03-24 13:23:00,51.0,50.0,29.52,ENE,64,0.0,2.0,98,0.00,,,0.78,,2013-03-24 17:23:00,
2013-03-24 13:33:00,52.0,51.0,29.52,South,186,1.0,3.0,96,0.00,,,0.78,,2013-03-24 17:33:00,
2013-03-24 13:42:00,52.0,51.0,29.52,South,186,1.0,3.0,96,0.00,,,0.78,,2013-03-24 17:42:00,
2013-03-24 13:52:00,52.0,51.0,29.52,South,176,0.0,3.0,97,0.00,,,0.78,,2013-03-24 17:52:00,
2013-03-24 14:03:00,52.0,51.0,29.52,SSW,200,3.0,6.0,96,0.00,,,0.78,,2013-03-24 18:03:00,
2013-03-24 14:12:00,52.0,51.0,29.52,SSW,200,3.0,6.0,96,0.00,,,0.78,,2013-03-24 18:12:00,
2013-03-24 14:22:00,53.0,52.0,29.51,South,172,5.0,18.0,96,0.00,,,0.78,,2013-03-24 18:22:00,
2013-03-24 14:33:00,54.0,53.0,29.51,SSE,162,7.0,17.0,97,0.00,,,0.78,,2013-03-24 18:33:00,
2013-03-24 14:43:00,54.0,53.0,29.51,SSE,162,7.0,17.0,97,0.00,,,0.78,,2013-03-24 18:43:00,
2013-03-24 14:52:00,54.0,53.0,29.49,South,174,2.0,13.0,95,0.00,,,0.78,,2013-03-24 18:52:00,
2013-03-24 15:03:00,55.0,54.0,29.49,SSE,167,5.0,13.0,96,0.00,,,0.78,,2013-03-24 19:03:00,
2013-03-24 15:12:00,55.0,54.0,29.49,SSE,167,5.0,13.0,96,0.00,,,0.78,,2013-03-24 19:12:00,
2013-03-24 15:22:00,57.0,55.0,29.49,SSE,168,3.0,12.0,93,0.00,,,0.78,,2013-03-24 19:22:00,
2013-03-24 15:32:00,57.0,54.0,29.48,SE,141,3.0,10.0,91,0.00,,,0.78,,2013-03-24 19:32:00,
2013-03-24 15:43:00,57.0,54.0,29.48,SE,141,3.0,10.0,91,0.00,,,0.78,,2013-03-24 19:43:00,
2013-03-24 15:52:00,57.0,54.0,29.47,SSE,148,4.0,16.0,89,0.00,,,0.78,,2013-03-24 19:52:00,
2013-03-24 16:03:00,56.0,52.0,29.47,SSE,155,7.0,21.0,86,0.00,,,0.78,,2013-03-24 20:03:00,
2013-03-24 16:12:00,56.0,52.0,29.47,SSE,155,7.0,21.0,86,0.00,,,0.78,,2013-03-24 20:12:00,
2013-03-24 16:22:00,54.0,50.0,29.47,SSE,154,5.0,13.0,86,0.00,,,0.78,,2013-03-24 20:22:00,
2013-03-24 16:32:00,54.0,50.0,29.42,South,191,6.0,22.0,85,0.00,,,0.78,,2013-03-24 20:32:00,
2013-03-24 16:43:00,54.0,50.0,29.42,South,191,6.0,22.0,85,0.00,,,0.78,,2013-03-24 20:43:00,
2013-03-24 16:52:00,54.0,50.0,29.42,SSW,205,4.0,17.0,85,0.00,,,0.78,,2013-03-24 20:52:00,
2013-03-24 17:02:00,53.0,49.0,29.41,SE,143,8.0,17.0,85,0.00,,,0.78,,2013-03-24 21:02:00,
2013-03-24 17:12:00,53.0,49.0,29.41,SE,143,8.0,17.0,85,0.00,,,0.78,,2013-03-24 21:12:00,
2013-03-24 17:22:00,53.0,49.0,29.40,South,182,6.0,12.0,86,0.00,,,0.78,,2013-03-24 21:22:00,
2013-03-24 17:33:00,53.0,48.0,29.39,South,176,5.0,16.0,84,0.00,,,0.78,,2013-03-24 21:33:00,
2013-03-24 17:43:00,53.0,48.0,29.39,South,176,5.0,16.0,84,0.00,,,0.78,,2013-03-24 21:43:00,
2013-03-24 17:53:00,53.0,49.0,29.38,SSE,165,2.0,12.0,85,0.00,,,0.78,,2013-03-24 21:53:00,
2013-03-24 18:03:00,52.0,48.0,29.39,SSE,160,6.0,14.0,87,0.03,,,0.81,,2013-03-24 22:03:00,
2013-03-24 18:13:00,51.0,48.0,29.40,WSW,246,11.0,25.0,88,0.09,,,0.87,,2013-03-24 22:13:00,
2013-03-24 18:23:00,51.0,48.0,29.40,WSW,246,11.0,25.0,88,0.09,,,0.87,,2013-03-24 22:23:00,
2013-03-24 18:33:00,51.0,48.0,29.42,WNW,285,5.0,19.0,90,0.09,,,0.87,,2013-03-24 22:33:00,
2013-03-24 18:43:00,51.0,48.0,29.42,WNW,285,5.0,19.0,90,0.09,,,0.87,,2013-03-24 22:43:00,
2013-03-24 18:52:00,52.0,49.0,29.43,SW,220,5.0,22.0,89,0.09,,,0.87,,2013-03-24 22:52:00,
2013-03-24 19:03:00,52.0,48.0,29.43,WSW,254,7.0,22.0,86,0.07,,,0.88,,2013-03-24 23:03:00,
2013-03-24 19:12:00,52.0,48.0,29.43,WSW,254,7.0,22.0,86,0.07,,,0.88,,2013-03-24 23:12:00,
2013-03-24 19:22:00,51.0,45.0,29.45,WSW,244,9.0,18.0,81,0.01,,,0.88,,2013-03-24 23:22:00,
2013-03-24 19:32:00,51.0,43.0,29.46,WSW,243,8.0,17.0,75,0.01,,,0.88,,2013-03-24 23:32:00,
2013-03-24 19:42:00,51.0,43.0,29.46,WSW,243,8.0,17.0,75,0.01,,,0.88,,2013-03-24 23:42:00,
2013-03-24 19:52:00,50.0,42.0,29.47,WSW,257,8.0,18.0,73,0.01,,,0.88,,2013-03-24 23:52:00,
2013-03-24 20:02:00,50.0,41.0,29.47,South,188,7.0,17.0,71,0.00,,,0.88,,2013-03-25 00:02:00,
2013-03-24 20:12:00,50.0,41.0,29.47,South,188,7.0,17.0,71,0.00,,,0.88,,2013-03-25 00:12:00,
2013-03-24 20:22:00,50.0,40.0,29.47,WNW,282,7.0,21.0,68,0.00,,,0.87,,2013-03-25 00:22:00,
2013-03-24 20:32:00,50.0,39.0,29.49,SW,234,3.0,18.0,66,0.00,,,0.87,,2013-03-25 00:32:00,
2013-03-24 20:43:00,50.0,39.0,29.49,SW,234,3.0,18.0,66,0.00,,,0.87,,2013-03-25 00:43:00,
2013-03-24 20:52:00,50.0,38.0,29.50,WSW,239,9.0,28.0,62,0.00,,,0.87,,2013-03-25 00:52:00,
2013-03-24 21:02:00,49.0,35.0,29.52,SSW,206,13.0,30.0,58,0.00,,,0.87,,2013-03-25 01:02:00,
2013-03-24 21:12:00,49.0,35.0,29.52,SSW,206,13.0,30.0,58,0.00,,,0.87,,2013-03-25 01:12:00,
2013-03-24 21:22:00,47.0,33.0,29.53,West,270,9.0,30.0,59,0.00,,,0.87,,2013-03-25 01:22:00,
2013-03-24 21:32:00,44.0,31.0,29.56,WSW,250,12.0,30.0,59,0.00,,,0.87,,2013-03-25 01:32:00,
2013-03-24 21:42:00,44.0,31.0,29.56,WSW,250,12.0,30.0,59,0.00,,,0.87,,2013-03-25 01:42:00,
2013-03-24 21:52:00,43.0,29.0,29.59,WSW,250,4.0,16.0,58,0.00,,,0.87,,2013-03-25 01:52:00,
2013-03-24 22:02:00,42.0,29.0,29.60,SSW,205,11.0,30.0,59,0.00,,,0.87,,2013-03-25 02:02:00,
2013-03-24 22:12:00,42.0,29.0,29.60,SSW,205,11.0,30.0,59,0.00,,,0.87,,2013-03-25 02:12:00,
2013-03-24 22:22:00,42.0,29.0,29.61,West,267,4.0,32.0,60,0.00,,,0.87,,2013-03-25 02:22:00,
2013-03-24 22:33:00,42.0,29.0,29.61,WSW,256,11.0,17.0,59,0.00,,,0.87,,2013-03-25 02:33:00,
2013-03-24 22:43:00,42.0,30.0,29.62,WSW,256,11.0,22.0,61,0.00,,,0.87,,2013-03-25 02:43:00,
2013-03-24 22:52:00,42.0,30.0,29.62,WSW,256,11.0,22.0,61,0.00,,,0.87,,2013-03-25 02:52:00,
2013-03-24 23:03:00,42.0,30.0,29.62,West,281,4.0,14.0,61,0.00,,,0.87,,2013-03-25 03:03:00,
2013-03-24 23:13:00,42.0,30.0,29.62,West,281,4.0,14.0,61,0.00,,,0.87,,2013-03-25 03:13:00,
2013-03-24 23:23:00,42.0,29.0,29.63,West,281,5.0,20.0,60,0.00,,,0.87,,2013-03-25 03:23:00,
2013-03-24 23:33:00,41.0,28.0,29.63,WSW,244,10.0,19.0,60,0.00,,,0.87,,2013-03-25 03:33:00,
2013-03-24 23:43:00,41.0,29.0,29.64,West,268,8.0,14.0,61,0.00,,,0.87,,2013-03-25 03:43:00,
2013-03-24 23:53:00,41.0,29.0,29.64,West,268,8.0,14.0,61,0.00,,,0.87,,2013-03-25 03:53:00,